sensor_id;sensor_type;location;lat;lon;timestamp;pressure;altitude;pressure_sealevel;temperature;humidity
15314;BME280;7757;52.626;4.746;2023-06-10T00:02:04;101473.13;;;22.78;57.56
15314;BME280;7757;52.626;4.746;2023-06-10T00:04:29;101477.41;;;22.08;56.52
15314;BME280;7757;52.626;4.746;2023-06-10T00:06:55;101382.81;;;22.58;55.63
15314;BME280;7757;52.626;4.746;2023-06-10T00:09:20;101451.72;;;22.04;57.70
15314;BME280;7757;52.626;4.746;2023-06-10T00:11:46;101470.81;;;22.37;58.95
15314;BME280;7757;52.626;4.746;2023-06-10T00:14:12;101475.91;;;22.50;57.85
15314;BME280;7757;52.626;4.746;2023-06-10T00:16:38;101399.41;;;21.74;58.53
15314;BME280;7757;52.626;4.746;2023-06-10T00:19:04;101438.75;;;22.28;59.35
15314;BME280;7757;52.626;4.746;2023-06-10T00:21:33;101480.53;;;23.43;56.80
15314;BME280;7757;52.626;4.746;2023-06-10T00:24:06;101464.34;;;22.60;56.86
15314;BME280;7757;52.626;4.746;2023-06-10T00:26:32;101438.59;;;22.17;54.69
15314;BME280;7757;52.626;4.746;2023-06-10T00:29:00;101419.13;;;21.36;58.98
15314;BME280;7757;52.626;4.746;2023-06-10T00:31:26;101423.06;;;22.18;57.75
15314;BME280;7757;52.626;4.746;2023-06-10T00:33:55;101486.75;;;22.29;58.59
15314;BME280;7757;52.626;4.746;2023-06-10T00:36:20;101481.28;;;22.45;58.44
15314;BME280;7757;52.626;4.746;2023-06-10T00:38:46;101477.09;;;22.38;58.01
15314;BME280;7757;52.626;4.746;2023-06-10T00:41:11;101481.41;;;21.60;56.83
15314;BME280;7757;52.626;4.746;2023-06-10T00:43:37;101485.31;;;22.26;55.90
15314;BME280;7757;52.626;4.746;2023-06-10T00:46:02;101413.84;;;21.57;58.46
15314;BME280;7757;52.626;4.746;2023-06-10T00:48:28;101478.41;;;22.02;58.35
15314;BME280;7757;52.626;4.746;2023-06-10T00:50:54;101405.47;;;21.76;59.39
15314;BME280;7757;52.626;4.746;2023-06-10T00:53:21;101478.72;;;22.22;56.71
15314;BME280;7757;52.626;4.746;2023-06-10T00:55:47;101445.81;;;21.79;55.36
15314;BME280;7757;52.626;4.746;2023-06-10T00:58:13;101448.81;;;21.94;59.17
15314;BME280;7757;52.626;4.746;2023-06-10T01:00:39;101483.91;;;21.50;57.45
15314;BME280;7757;52.626;4.746;2023-06-10T01:03:04;101417.38;;;22.03;58.65
15314;BME280;7757;52.626;4.746;2023-06-10T01:05:39;101479.38;;;22.29;58.55
15314;BME280;7757;52.626;4.746;2023-06-10T01:08:18;101473.31;;;21.65;54.19
15314;BME280;7757;52.626;4.746;2023-06-10T01:10:57;101481.19;;;22.23;55.45
15314;BME280;7757;52.626;4.746;2023-06-10T01:13:25;101480.72;;;22.10;58.32
15314;BME280;7757;52.626;4.746;2023-06-10T01:15:54;101493.28;;;22.61;55.61
15314;BME280;7757;52.626;4.746;2023-06-10T01:18:23;101492.84;;;22.86;55.90
15314;BME280;7757;52.626;4.746;2023-06-10T01:20:49;101467.66;;;22.12;57.92
15314;BME280;7757;52.626;4.746;2023-06-10T01:23:15;101423.88;;;21.29;59.46
15314;BME280;7757;52.626;4.746;2023-06-10T01:25:47;101477.41;;;22.41;57.99
15314;BME280;7757;52.626;4.746;2023-06-10T01:31:36;101487.28;;;21.29;58.42
15314;BME280;7757;52.626;4.746;2023-06-10T01:34:08;101492.38;;;22.22;58.79
15314;BME280;7757;52.626;4.746;2023-06-10T01:36:34;101421.88;;;21.52;57.94
15314;BME280;7757;52.626;4.746;2023-06-10T01:39:02;101491.22;;;22.68;58.18
15314;BME280;7757;52.626;4.746;2023-06-10T01:41:28;101480.53;;;22.50;58.15
15314;BME280;7757;52.626;4.746;2023-06-10T01:43:54;101456.22;;;21.25;55.40
15314;BME280;7757;52.626;4.746;2023-06-10T01:46:20;101389.22;;;20.73;57.02
15314;BME280;7757;52.626;4.746;2023-06-10T01:48:46;101484.81;;;21.96;58.67
15314;BME280;7757;52.626;4.746;2023-06-10T01:51:12;101470.91;;;21.41;56.12
15314;BME280;7757;52.626;4.746;2023-06-10T01:53:37;101453.44;;;21.37;59.15
15314;BME280;7757;52.626;4.746;2023-06-10T01:56:03;101487.47;;;22.24;57.09
15314;BME280;7757;52.626;4.746;2023-06-10T01:58:28;101482.75;;;22.03;56.85
15314;BME280;7757;52.626;4.746;2023-06-10T02:00:54;101431.59;;;21.20;58.77
15314;BME280;7757;52.626;4.746;2023-06-10T02:03:19;101488.25;;;21.23;56.06
15314;BME280;7757;52.626;4.746;2023-06-10T02:05:45;101468.31;;;21.74;57.75
15314;BME280;7757;52.626;4.746;2023-06-10T02:08:10;101445.28;;;22.10;54.52
15314;BME280;7757;52.626;4.746;2023-06-10T02:10:35;101458.66;;;21.95;57.77
15314;BME280;7757;52.626;4.746;2023-06-10T02:13:01;101447.13;;;20.96;57.04
15314;BME280;7757;52.626;4.746;2023-06-10T02:15:30;101489.69;;;21.82;54.66
15314;BME280;7757;52.626;4.746;2023-06-10T02:17:55;101475.84;;;22.29;58.22
15314;BME280;7757;52.626;4.746;2023-06-10T02:20:21;101465.09;;;20.97;58.27
15314;BME280;7757;52.626;4.746;2023-06-10T02:22:46;101492.72;;;21.69;57.39
15314;BME280;7757;52.626;4.746;2023-06-10T02:25:12;101450.25;;;22.13;57.03
15314;BME280;7757;52.626;4.746;2023-06-10T02:27:37;101497.47;;;21.34;54.93
15314;BME280;7757;52.626;4.746;2023-06-10T02:30:03;101464.00;;;21.22;56.55
15314;BME280;7757;52.626;4.746;2023-06-10T02:32:28;101467.75;;;20.46;57.21
15314;BME280;7757;52.626;4.746;2023-06-10T02:34:57;101501.88;;;21.11;56.59
15314;BME280;7757;52.626;4.746;2023-06-10T02:37:23;101502.94;;;20.64;56.68
15314;BME280;7757;52.626;4.746;2023-06-10T02:39:48;101479.56;;;21.38;56.78
15314;BME280;7757;52.626;4.746;2023-06-10T02:42:20;101443.34;;;21.09;56.88
15314;BME280;7757;52.626;4.746;2023-06-10T02:44:45;101346.00;;;21.11;56.80
15314;BME280;7757;52.626;4.746;2023-06-10T02:47:10;101356.44;;;20.91;57.00
15314;BME280;7757;52.626;4.746;2023-06-10T02:49:35;101458.50;;;20.35;58.78
15314;BME280;7757;52.626;4.746;2023-06-10T02:52:01;101442.59;;;21.82;58.32
15314;BME280;7757;52.626;4.746;2023-06-10T02:54:33;101400.22;;;21.29;57.13
15314;BME280;7757;52.626;4.746;2023-06-10T02:56:58;101494.97;;;21.32;58.71
15314;BME280;7757;52.626;4.746;2023-06-10T02:59:27;101489.59;;;21.77;56.27
15314;BME280;7757;52.626;4.746;2023-06-10T03:01:53;101441.22;;;20.18;58.03
15314;BME280;7757;52.626;4.746;2023-06-10T03:04:19;101426.03;;;20.64;59.33
15314;BME280;7757;52.626;4.746;2023-06-10T03:06:45;101467.91;;;22.10;57.55
15314;BME280;7757;52.626;4.746;2023-06-10T03:09:12;101471.47;;;21.03;58.83
15314;BME280;7757;52.626;4.746;2023-06-10T03:11:38;101428.53;;;21.73;56.50
15314;BME280;7757;52.626;4.746;2023-06-10T03:14:04;101442.72;;;21.19;55.33
15314;BME280;7757;52.626;4.746;2023-06-10T03:16:30;101419.78;;;21.14;56.54
15314;BME280;7757;52.626;4.746;2023-06-10T03:18:56;101449.00;;;21.07;59.40
15314;BME280;7757;52.626;4.746;2023-06-10T03:21:22;101416.03;;;20.92;57.36
15314;BME280;7757;52.626;4.746;2023-06-10T03:23:47;101475.91;;;21.32;56.48
15314;BME280;7757;52.626;4.746;2023-06-10T03:26:12;101497.22;;;21.75;56.51
15314;BME280;7757;52.626;4.746;2023-06-10T03:28:42;101429.75;;;21.65;57.82
15314;BME280;7757;52.626;4.746;2023-06-10T03:31:07;101444.75;;;21.00;57.48
15314;BME280;7757;52.626;4.746;2023-06-10T03:33:33;101508.22;;;21.68;59.25
15314;BME280;7757;52.626;4.746;2023-06-10T03:35:59;101448.69;;;20.92;56.10
15314;BME280;7757;52.626;4.746;2023-06-10T03:38:27;101482.47;;;20.96;58.97
15314;BME280;7757;52.626;4.746;2023-06-10T03:40:52;101413.47;;;21.37;57.77
15314;BME280;7757;52.626;4.746;2023-06-10T03:43:17;101502.72;;;20.54;58.33
15314;BME280;7757;52.626;4.746;2023-06-10T03:45:43;101508.72;;;20.56;60.17
15314;BME280;7757;52.626;4.746;2023-06-10T03:48:08;101510.47;;;21.72;58.38
15314;BME280;7757;52.626;4.746;2023-06-10T03:50:35;101507.66;;;21.66;56.52
15314;BME280;7757;52.626;4.746;2023-06-10T03:53:01;101508.25;;;21.17;57.89
15314;BME280;7757;52.626;4.746;2023-06-10T03:55:26;101404.72;;;20.84;59.16
15314;BME280;7757;52.626;4.746;2023-06-10T03:57:52;101472.78;;;21.00;56.90
15314;BME280;7757;52.626;4.746;2023-06-10T04:00:18;101509.69;;;20.73;59.09
15314;BME280;7757;52.626;4.746;2023-06-10T04:02:46;101437.03;;;21.20;57.60
15314;BME280;7757;52.626;4.746;2023-06-10T04:05:12;101415.31;;;21.65;57.35
15314;BME280;7757;52.626;4.746;2023-06-10T04:07:38;101498.94;;;20.67;58.43
15314;BME280;7757;52.626;4.746;2023-06-10T04:10:08;101492.19;;;21.16;59.29
15314;BME280;7757;52.626;4.746;2023-06-10T04:12:34;101521.44;;;21.48;59.06
15314;BME280;7757;52.626;4.746;2023-06-10T04:15:00;101517.00;;;21.31;57.48
15314;BME280;7757;52.626;4.746;2023-06-10T04:17:25;101446.63;;;21.51;58.22
15314;BME280;7757;52.626;4.746;2023-06-10T04:19:51;101524.97;;;21.60;57.56
15314;BME280;7757;52.626;4.746;2023-06-10T04:22:17;101528.34;;;21.39;58.21
15314;BME280;7757;52.626;4.746;2023-06-10T04:24:43;101520.81;;;21.86;57.71
15314;BME280;7757;52.626;4.746;2023-06-10T04:27:08;101523.03;;;22.01;57.72
15314;BME280;7757;52.626;4.746;2023-06-10T04:29:37;101526.47;;;21.28;58.49
15314;BME280;7757;52.626;4.746;2023-06-10T04:32:02;101494.47;;;21.47;58.21
15314;BME280;7757;52.626;4.746;2023-06-10T04:34:28;101451.16;;;21.45;56.67
15314;BME280;7757;52.626;4.746;2023-06-10T04:36:53;101455.47;;;21.30;57.20
15314;BME280;7757;52.626;4.746;2023-06-10T04:39:19;101441.00;;;20.89;58.16
15314;BME280;7757;52.626;4.746;2023-06-10T04:41:45;101533.03;;;22.12;56.45
15314;BME280;7757;52.626;4.746;2023-06-10T04:44:11;101446.88;;;21.21;57.91
15314;BME280;7757;52.626;4.746;2023-06-10T04:46:37;101480.59;;;21.77;57.82
15314;BME280;7757;52.626;4.746;2023-06-10T04:49:05;101500.03;;;21.52;57.58
15314;BME280;7757;52.626;4.746;2023-06-10T04:51:31;101489.56;;;20.97;56.28
15314;BME280;7757;52.626;4.746;2023-06-10T04:53:57;101453.78;;;21.68;58.05
15314;BME280;7757;52.626;4.746;2023-06-10T04:56:23;101539.16;;;22.02;56.84
15314;BME280;7757;52.626;4.746;2023-06-10T04:58:49;101490.81;;;21.41;56.50
15314;BME280;7757;52.626;4.746;2023-06-10T05:01:15;101450.22;;;20.88;59.70
15314;BME280;7757;52.626;4.746;2023-06-10T05:03:40;101493.97;;;21.90;56.80
15314;BME280;7757;52.626;4.746;2023-06-10T05:06:05;101457.09;;;20.44;58.97
15314;BME280;7757;52.626;4.746;2023-06-10T05:08:31;101524.00;;;20.92;58.93
15314;BME280;7757;52.626;4.746;2023-06-10T05:10:56;101538.13;;;22.37;56.16
15314;BME280;7757;52.626;4.746;2023-06-10T05:13:21;101544.28;;;21.47;58.01
15314;BME280;7757;52.626;4.746;2023-06-10T05:15:48;101468.56;;;21.44;56.56
15314;BME280;7757;52.626;4.746;2023-06-10T05:18:13;101541.59;;;22.49;56.34
15314;BME280;7757;52.626;4.746;2023-06-10T05:20:39;101421.72;;;21.42;55.48
15314;BME280;7757;52.626;4.746;2023-06-10T05:23:04;101513.59;;;21.63;56.24
15314;BME280;7757;52.626;4.746;2023-06-10T05:25:31;101501.75;;;22.14;56.36
15314;BME280;7757;52.626;4.746;2023-06-10T05:27:57;101542.75;;;22.53;55.13
15314;BME280;7757;52.626;4.746;2023-06-10T05:30:23;101541.41;;;22.67;54.42
15314;BME280;7757;52.626;4.746;2023-06-10T05:32:49;101448.00;;;22.27;54.71
15314;BME280;7757;52.626;4.746;2023-06-10T05:35:16;101545.50;;;23.03;54.18
15314;BME280;7757;52.626;4.746;2023-06-10T05:37:42;101492.72;;;22.97;52.78
15314;BME280;7757;52.626;4.746;2023-06-10T05:40:11;101548.84;;;23.48;52.78
15314;BME280;7757;52.626;4.746;2023-06-10T05:42:36;101546.44;;;23.52;52.37
15314;BME280;7757;52.626;4.746;2023-06-10T05:45:02;101548.78;;;23.65;52.14
15314;BME280;7757;52.626;4.746;2023-06-10T05:47:28;101465.28;;;23.25;51.55
15314;BME280;7757;52.626;4.746;2023-06-10T05:49:56;101468.31;;;23.51;51.43
15314;BME280;7757;52.626;4.746;2023-06-10T05:52:25;101489.84;;;23.47;51.38
15314;BME280;7757;52.626;4.746;2023-06-10T05:54:51;101516.00;;;23.65;51.28
15314;BME280;7757;52.626;4.746;2023-06-10T05:57:20;101544.91;;;24.09;50.38
15314;BME280;7757;52.626;4.746;2023-06-10T05:59:45;101498.25;;;23.89;50.47
15314;BME280;7757;52.626;4.746;2023-06-10T06:02:10;101526.69;;;24.15;51.34
15314;BME280;7757;52.626;4.746;2023-06-10T06:04:36;101556.75;;;24.41;48.90
15314;BME280;7757;52.626;4.746;2023-06-10T06:07:01;101550.72;;;24.44;50.07
15314;BME280;7757;52.626;4.746;2023-06-10T06:09:27;101558.13;;;24.44;50.00
15314;BME280;7757;52.626;4.746;2023-06-10T06:11:52;101555.41;;;24.44;50.31
15314;BME280;7757;52.626;4.746;2023-06-10T06:14:17;101506.63;;;24.36;49.24
15314;BME280;7757;52.626;4.746;2023-06-10T06:16:43;101562.72;;;24.70;48.90
15314;BME280;7757;52.626;4.746;2023-06-10T06:19:08;101538.09;;;24.70;48.37
15314;BME280;7757;52.626;4.746;2023-06-10T06:21:36;101541.28;;;24.57;49.13
15314;BME280;7757;52.626;4.746;2023-06-10T06:24:05;101529.84;;;24.65;48.80
15314;BME280;7757;52.626;4.746;2023-06-10T06:26:33;101563.84;;;25.06;48.34
15314;BME280;7757;52.626;4.746;2023-06-10T06:28:58;101561.72;;;25.18;48.70
15314;BME280;7757;52.626;4.746;2023-06-10T06:31:24;101561.13;;;25.16;47.98
15314;BME280;7757;52.626;4.746;2023-06-10T06:33:49;101561.22;;;25.26;48.18
15314;BME280;7757;52.626;4.746;2023-06-10T06:36:15;101492.94;;;24.68;48.51
15314;BME280;7757;52.626;4.746;2023-06-10T06:38:40;101543.41;;;25.24;47.78
15314;BME280;7757;52.626;4.746;2023-06-10T06:41:05;101559.91;;;25.39;47.93
15314;BME280;7757;52.626;4.746;2023-06-10T06:43:31;101553.19;;;25.57;46.57
15314;BME280;7757;52.626;4.746;2023-06-10T06:45:57;101558.25;;;25.38;47.86
15314;BME280;7757;52.626;4.746;2023-06-10T06:48:23;101509.25;;;25.41;47.10
15314;BME280;7757;52.626;4.746;2023-06-10T06:50:48;101550.34;;;25.41;46.95
15314;BME280;7757;52.626;4.746;2023-06-10T06:53:14;101555.94;;;25.72;46.89
15314;BME280;7757;52.626;4.746;2023-06-10T06:55:39;101562.72;;;25.54;47.85
15314;BME280;7757;52.626;4.746;2023-06-10T06:58:04;101551.66;;;25.34;47.86
15314;BME280;7757;52.626;4.746;2023-06-10T07:00:30;101508.66;;;25.34;46.63
15314;BME280;7757;52.626;4.746;2023-06-10T07:02:56;101473.72;;;24.94;47.64
15314;BME280;7757;52.626;4.746;2023-06-10T07:05:22;101562.25;;;25.72;46.65
15314;BME280;7757;52.626;4.746;2023-06-10T07:07:51;101559.75;;;25.61;47.84
15314;BME280;7757;52.626;4.746;2023-06-10T07:10:25;101574.94;;;25.83;46.32
15314;BME280;7757;52.626;4.746;2023-06-10T07:12:51;101565.63;;;25.94;45.32
15314;BME280;7757;52.626;4.746;2023-06-10T07:15:17;101570.59;;;26.07;45.13
15314;BME280;7757;52.626;4.746;2023-06-10T07:17:45;101554.13;;;26.02;45.26
15314;BME280;7757;52.626;4.746;2023-06-10T07:20:11;101562.56;;;25.81;46.49
15314;BME280;7757;52.626;4.746;2023-06-10T07:22:37;101565.38;;;26.01;46.00
15314;BME280;7757;52.626;4.746;2023-06-10T07:25:04;101565.06;;;25.87;46.28
15314;BME280;7757;52.626;4.746;2023-06-10T07:27:30;101526.88;;;25.66;46.52
15314;BME280;7757;52.626;4.746;2023-06-10T07:29:55;101574.22;;;26.18;46.31
15314;BME280;7757;52.626;4.746;2023-06-10T07:32:21;101576.97;;;26.18;44.79
15314;BME280;7757;52.626;4.746;2023-06-10T07:34:49;101522.84;;;25.88;45.51
15314;BME280;7757;52.626;4.746;2023-06-10T07:37:14;101546.25;;;26.56;44.94
15314;BME280;7757;52.626;4.746;2023-06-10T07:39:42;101564.63;;;26.41;45.71
15314;BME280;7757;52.626;4.746;2023-06-10T07:42:08;101534.16;;;26.22;44.43
15314;BME280;7757;52.626;4.746;2023-06-10T07:44:33;101547.06;;;26.27;44.90
15314;BME280;7757;52.626;4.746;2023-06-10T07:46:59;101487.22;;;25.93;44.05
15314;BME280;7757;52.626;4.746;2023-06-10T07:49:24;101551.75;;;26.36;45.48
15314;BME280;7757;52.626;4.746;2023-06-10T07:51:54;101531.72;;;26.56;44.51
15314;BME280;7757;52.626;4.746;2023-06-10T07:54:20;101582.69;;;27.23;43.30
15314;BME280;7757;52.626;4.746;2023-06-10T07:56:48;101539.91;;;26.96;43.33
15314;BME280;7757;52.626;4.746;2023-06-10T07:59:17;101576.66;;;27.21;42.91
15314;BME280;7757;52.626;4.746;2023-06-10T08:01:42;101574.75;;;27.21;43.23
15314;BME280;7757;52.626;4.746;2023-06-10T08:04:08;101580.25;;;27.21;43.64
15314;BME280;7757;52.626;4.746;2023-06-10T08:06:34;101587.94;;;27.19;43.59
15314;BME280;7757;52.626;4.746;2023-06-10T08:09:02;101583.50;;;27.43;42.90
15314;BME280;7757;52.626;4.746;2023-06-10T08:11:28;101564.91;;;27.10;43.68
15314;BME280;7757;52.626;4.746;2023-06-10T08:13:55;101584.13;;;27.10;44.45
15314;BME280;7757;52.626;4.746;2023-06-10T08:16:20;101528.94;;;27.01;43.78
15314;BME280;7757;52.626;4.746;2023-06-10T08:18:45;101585.97;;;27.45;43.70
15314;BME280;7757;52.626;4.746;2023-06-10T08:21:11;101560.34;;;27.64;42.40
15314;BME280;7757;52.626;4.746;2023-06-10T08:23:36;101585.28;;;27.83;42.82
15314;BME280;7757;52.626;4.746;2023-06-10T08:26:02;101582.28;;;27.75;42.64
15314;BME280;7757;52.626;4.746;2023-06-10T08:28:27;101586.19;;;27.58;43.64
15314;BME280;7757;52.626;4.746;2023-06-10T08:30:53;101538.03;;;26.82;44.96
15314;BME280;7757;52.626;4.746;2023-06-10T08:33:18;101573.16;;;27.84;42.21
15314;BME280;7757;52.626;4.746;2023-06-10T08:35:43;101541.41;;;27.53;43.36
15314;BME280;7757;52.626;4.746;2023-06-10T08:38:09;101540.88;;;27.56;42.74
15314;BME280;7757;52.626;4.746;2023-06-10T08:40:34;101525.19;;;27.56;43.11
15314;BME280;7757;52.626;4.746;2023-06-10T08:43:07;101566.88;;;27.74;43.61
15314;BME280;7757;52.626;4.746;2023-06-10T08:45:36;101583.59;;;28.36;40.96
15314;BME280;7757;52.626;4.746;2023-06-10T08:48:03;101561.06;;;27.85;42.32
15314;BME280;7757;52.626;4.746;2023-06-10T08:50:36;101588.75;;;27.30;44.51
15314;BME280;7757;52.626;4.746;2023-06-10T08:53:04;101583.22;;;28.09;42.32
15314;BME280;7757;52.626;4.746;2023-06-10T08:55:36;101592.53;;;28.18;42.37
15314;BME280;7757;52.626;4.746;2023-06-10T08:58:03;101560.41;;;28.08;40.64
15314;BME280;7757;52.626;4.746;2023-06-10T09:00:29;101591.59;;;28.33;41.70
15314;BME280;7757;52.626;4.746;2023-06-10T09:02:56;101517.16;;;27.70;42.01
15314;BME280;7757;52.626;4.746;2023-06-10T09:05:22;101589.31;;;28.45;40.35
15314;BME280;7757;52.626;4.746;2023-06-10T09:07:48;101590.63;;;28.52;39.72
15314;BME280;7757;52.626;4.746;2023-06-10T09:10:13;101567.41;;;28.30;39.55
15314;BME280;7757;52.626;4.746;2023-06-10T09:12:38;101593.41;;;28.47;39.83
15314;BME280;7757;52.626;4.746;2023-06-10T09:15:05;101590.59;;;28.18;41.33
15314;BME280;7757;52.626;4.746;2023-06-10T09:17:31;101590.81;;;28.27;40.86
15314;BME280;7757;52.626;4.746;2023-06-10T09:20:00;101521.94;;;27.93;40.22
15314;BME280;7757;52.626;4.746;2023-06-10T09:22:28;101548.25;;;28.14;40.62
15314;BME280;7757;52.626;4.746;2023-06-10T09:25:11;101589.94;;;28.37;40.20
15314;BME280;7757;52.626;4.746;2023-06-10T09:27:51;101584.31;;;28.13;41.99
15314;BME280;7757;52.626;4.746;2023-06-10T09:30:31;101594.59;;;28.36;40.83
15314;BME280;7757;52.626;4.746;2023-06-10T09:33:10;101594.41;;;28.61;40.26
15314;BME280;7757;52.626;4.746;2023-06-10T09:35:45;101572.84;;;28.40;40.49
15314;BME280;7757;52.626;4.746;2023-06-10T09:38:10;101548.47;;;28.23;41.36
15314;BME280;7757;52.626;4.746;2023-06-10T09:40:56;101583.34;;;28.33;40.99
15314;BME280;7757;52.626;4.746;2023-06-10T09:43:22;101565.38;;;28.01;41.59
15314;BME280;7757;52.626;4.746;2023-06-10T09:45:48;101601.25;;;28.30;41.88
15314;BME280;7757;52.626;4.746;2023-06-10T09:48:14;101579.91;;;28.12;41.46
15314;BME280;7757;52.626;4.746;2023-06-10T09:50:43;101597.16;;;28.28;41.56
15314;BME280;7757;52.626;4.746;2023-06-10T09:53:09;101596.16;;;28.13;41.60
15314;BME280;7757;52.626;4.746;2023-06-10T09:55:37;101603.59;;;28.03;41.99
15314;BME280;7757;52.626;4.746;2023-06-10T09:58:03;101570.56;;;28.08;40.60
15314;BME280;7757;52.626;4.746;2023-06-10T10:00:32;101587.34;;;28.11;41.82
15314;BME280;7757;52.626;4.746;2023-06-10T10:03:01;101554.88;;;28.13;41.41
15314;BME280;7757;52.626;4.746;2023-06-10T10:05:29;101573.00;;;28.14;41.45
15314;BME280;7757;52.626;4.746;2023-06-10T10:07:55;101483.72;;;27.53;41.27
15314;BME280;7757;52.626;4.746;2023-06-10T10:10:22;101595.28;;;28.18;41.34
15314;BME280;7757;52.626;4.746;2023-06-10T10:12:48;101594.31;;;28.38;40.70
15314;BME280;7757;52.626;4.746;2023-06-10T10:15:16;101569.53;;;27.99;41.43
15314;BME280;7757;52.626;4.746;2023-06-10T10:18:06;101571.34;;;28.18;41.83
15314;BME280;7757;52.626;4.746;2023-06-10T10:20:33;101507.75;;;27.81;40.52
15314;BME280;7757;52.626;4.746;2023-06-10T10:23:03;101600.47;;;28.24;41.03
15314;BME280;7757;52.626;4.746;2023-06-10T10:25:40;101547.78;;;27.97;40.67
15314;BME280;7757;52.626;4.746;2023-06-10T10:28:15;101583.84;;;27.96;41.68
15314;BME280;7757;52.626;4.746;2023-06-10T10:30:49;101568.28;;;28.20;39.98
15314;BME280;7757;52.626;4.746;2023-06-10T10:34:04;101559.09;;;27.96;40.23
15314;BME280;7757;52.626;4.746;2023-06-10T10:36:31;101579.06;;;28.16;41.40
15314;BME280;7757;52.626;4.746;2023-06-10T10:38:57;101585.88;;;28.24;40.64
15314;BME280;7757;52.626;4.746;2023-06-10T10:41:27;101584.28;;;28.18;40.84
15314;BME280;7757;52.626;4.746;2023-06-10T10:43:53;101577.94;;;28.17;40.18
15314;BME280;7757;52.626;4.746;2023-06-10T10:46:19;101532.88;;;28.13;40.09
15314;BME280;7757;52.626;4.746;2023-06-10T10:48:45;101581.47;;;28.23;39.58
15314;BME280;7757;52.626;4.746;2023-06-10T10:51:11;101532.63;;;28.05;40.33
15314;BME280;7757;52.626;4.746;2023-06-10T10:53:37;101588.16;;;28.51;39.66
15314;BME280;7757;52.626;4.746;2023-06-10T10:56:07;101581.75;;;28.27;41.43
15314;BME280;7757;52.626;4.746;2023-06-10T10:58:33;101586.41;;;28.31;39.14
15314;BME280;7757;52.626;4.746;2023-06-10T11:00:59;101521.78;;;27.80;38.61
15314;BME280;7757;52.626;4.746;2023-06-10T11:03:28;101559.88;;;28.06;40.65
15314;BME280;7757;52.626;4.746;2023-06-10T11:05:57;101537.13;;;27.86;40.22
15314;BME280;7757;52.626;4.746;2023-06-10T11:11:26;101561.75;;;28.50;39.26
15314;BME280;7757;52.626;4.746;2023-06-10T11:16:28;101448.25;;;27.56;40.56
15314;BME280;7757;52.626;4.746;2023-06-10T11:18:54;101389.19;;;26.90;39.81
15314;BME280;7757;52.626;4.746;2023-06-10T11:21:20;101433.47;;;27.37;39.17
15314;BME280;7757;52.626;4.746;2023-06-10T11:23:50;101555.44;;;28.10;39.32
15314;BME280;7757;52.626;4.746;2023-06-10T11:31:20;101554.59;;;28.15;39.72
15314;BME280;7757;52.626;4.746;2023-06-10T11:34:07;101550.47;;;28.12;40.52
15314;BME280;7757;52.626;4.746;2023-06-10T11:36:33;101551.63;;;28.06;39.01
15314;BME280;7757;52.626;4.746;2023-06-10T11:39:04;101514.75;;;28.02;39.73
15314;BME280;7757;52.626;4.746;2023-06-10T11:41:31;101549.03;;;28.20;39.39
15314;BME280;7757;52.626;4.746;2023-06-10T11:44:04;101507.75;;;27.76;39.12
15314;BME280;7757;52.626;4.746;2023-06-10T11:46:32;101529.16;;;27.84;39.82
15314;BME280;7757;52.626;4.746;2023-06-10T11:48:59;101543.91;;;28.03;39.35
15314;BME280;7757;52.626;4.746;2023-06-10T11:51:27;101483.75;;;27.43;39.76
15314;BME280;7757;52.626;4.746;2023-06-10T11:53:53;101511.41;;;27.61;39.44
15314;BME280;7757;52.626;4.746;2023-06-10T11:56:27;101510.25;;;27.73;40.04
15314;BME280;7757;52.626;4.746;2023-06-10T11:58:54;101544.84;;;27.84;38.83
15314;BME280;7757;52.626;4.746;2023-06-10T12:01:24;101536.25;;;27.95;39.95
15314;BME280;7757;52.626;4.746;2023-06-10T12:03:58;101497.41;;;27.63;39.29
15314;BME280;7757;52.626;4.746;2023-06-10T12:06:23;101471.09;;;27.47;40.03
15314;BME280;7757;52.626;4.746;2023-06-10T12:08:49;101534.16;;;27.77;40.17
15314;BME280;7757;52.626;4.746;2023-06-10T12:11:14;101468.66;;;27.45;40.01
15314;BME280;7757;52.626;4.746;2023-06-10T12:13:48;101532.41;;;27.91;39.89
15314;BME280;7757;52.626;4.746;2023-06-10T12:16:15;101528.28;;;27.94;39.00
15314;BME280;7757;52.626;4.746;2023-06-10T12:18:43;101477.94;;;27.54;40.36
15314;BME280;7757;52.626;4.746;2023-06-10T12:21:20;101513.25;;;27.76;39.80
15314;BME280;7757;52.626;4.746;2023-06-10T12:24:06;101528.28;;;27.94;40.21
15314;BME280;7757;52.626;4.746;2023-06-10T12:26:37;101524.69;;;27.98;39.99
15314;BME280;7757;52.626;4.746;2023-06-10T12:29:22;101520.72;;;27.70;40.04
15314;BME280;7757;52.626;4.746;2023-06-10T12:32:03;101525.88;;;27.82;40.33
15314;BME280;7757;52.626;4.746;2023-06-10T12:34:38;101481.47;;;27.60;40.09
15314;BME280;7757;52.626;4.746;2023-06-10T12:37:05;101514.06;;;27.82;39.68
15314;BME280;7757;52.626;4.746;2023-06-10T12:39:34;101482.38;;;27.45;39.96
15314;BME280;7757;52.626;4.746;2023-06-10T12:42:01;101503.28;;;27.90;39.43
15314;BME280;7757;52.626;4.746;2023-06-10T12:44:33;101419.25;;;27.30;39.39
15314;BME280;7757;52.626;4.746;2023-06-10T12:47:00;101521.53;;;27.71;39.32
15314;BME280;7757;52.626;4.746;2023-06-10T12:49:26;101438.44;;;27.35;40.58
15314;BME280;7757;52.626;4.746;2023-06-10T12:51:52;101518.41;;;27.88;39.28
15314;BME280;7757;52.626;4.746;2023-06-10T12:54:17;101519.50;;;27.92;39.74
15314;BME280;7757;52.626;4.746;2023-06-10T12:56:43;101439.00;;;27.32;40.17
15314;BME280;7757;52.626;4.746;2023-06-10T12:59:08;101489.91;;;27.74;40.34
15314;BME280;7757;52.626;4.746;2023-06-10T13:01:34;101439.25;;;27.36;40.85
15314;BME280;7757;52.626;4.746;2023-06-10T13:03:59;101489.09;;;27.73;39.86
15314;BME280;7757;52.626;4.746;2023-06-10T13:06:25;101484.81;;;27.52;40.02
15314;BME280;7757;52.626;4.746;2023-06-10T13:08:51;101497.44;;;27.53;39.98
15314;BME280;7757;52.626;4.746;2023-06-10T13:11:16;101465.06;;;27.40;40.05
15314;BME280;7757;52.626;4.746;2023-06-10T13:13:42;101508.34;;;27.73;40.67
15314;BME280;7757;52.626;4.746;2023-06-10T13:16:11;101516.31;;;27.69;40.28